Time;durP1;ratioP1;P1;durP2;ratioP2;P2;SDS_P1;SDS_P2;PMS_P1;PMS_P2;Temp;Humidity;BMP_temperature;BMP_pressure;BME280_temperature;BME280_humidity;BME280_pressure;Samples;Min_cycle;Max_cycle;Signal;HPM_P1;HPM_P2
2023/07/11 00:00:14;;;;;;;;;;;;;;;;;;5091034;28;20637;-68
2023/07/11 00:02:41;;;;;;;;;;;;;;;;;;5073858;28;20384;-69
2023/07/11 00:05:08;;;;;;;;;;;;;;;;;;5073638;28;20375;-69
2023/07/11 00:07:35;;;;;;;;;;;;;;;;;;5074024;28;20024;-68
2023/07/11 00:10:02;;;;;;;;;;;;;;;;;;5071144;28;19924;-68
2023/07/11 00:12:29;;;;;;;;;;;;;;;;;;5071611;28;20027;-69
2023/07/11 00:14:56;;;;;;;;;;;;;;;;;;5071784;28;19935;-69
2023/07/11 00:17:23;;;;;;;;;;;;;;;;;;5071084;28;20023;-69
2023/07/11 00:19:50;;;;;;;;;;;;;;;;;;5072854;28;20016;-67
2023/07/11 00:22:17;;;;;;;;;;;;;;;;;;5070775;28;20023;-69
2023/07/11 00:24:44;;;;;;;;;;;;;;;;;;5070360;28;20446;-69
2023/07/11 00:27:11;;;;;;;;;;;;;;;;;;5071993;28;20357;-68
2023/07/11 00:29:38;;;;;;;;;;;;;;;;;;5071857;28;19925;-68
2023/07/11 00:32:05;;;;;;;;;;;;;;;;;;5075320;28;19928;-68
2023/07/11 00:34:32;;;;;;;;;;;;;;;;;;5074856;28;19970;-68
2023/07/11 00:36:59;;;;;;;;;;;;;;;;;;5072266;28;19931;-69
2023/07/11 00:39:26;;;;;;;;;;;;;;;;;;5072000;28;20367;-68
2023/07/11 00:41:53;;;;;;;;;;;;;;;;;;5070205;28;20387;-68
2023/07/11 00:44:20;;;;;;;;;;;;;;;;;;5065125;28;19967;-69
2023/07/11 00:46:47;;;;;;;;;;;;;;;;;;5062926;28;20014;-69
2023/07/11 00:49:14;;;;;;;;;;;;;;;;;;5079531;28;20007;-70
2023/07/11 00:51:41;;;;;;;;;;;;;;;;;;5086554;28;20264;-69
2023/07/11 00:54:08;;;;;;;;;;;;;;;;;;5072678;28;19924;-69
2023/07/11 00:56:35;;;;;;;;;;;;;;;;;;5073165;28;20007;-69
2023/07/11 00:59:02;;;;;;;;;;;;;;;;;;5073140;28;20283;-69
2023/07/11 01:01:29;;;;;;;;;;;;;;;;;;5073288;28;20379;-69
2023/07/11 01:03:56;;;;;;;;;;;;;;;;;;5072967;28;19978;-70
2023/07/11 01:06:23;;;;;;;;;;;;;;;;;;5068250;28;19925;-69
2023/07/11 01:08:51;;;;;;;;;;;;;;;;;;5067688;28;19925;-69
2023/07/11 01:11:18;;;;;;;;;;;;;;;;;;5068391;28;20018;-68
2023/07/11 01:13:45;;;;;;;;;;;;;;;;;;5070846;28;19925;-69
2023/07/11 01:16:12;;;;;;;;;;;;;;;;;;5070693;28;20453;-69
2023/07/11 01:18:39;;;;;;;;;;;;;;;;;;5071220;28;19924;-69
2023/07/11 01:21:06;;;;;;;;;;;;;;;;;;5071279;28;20015;-69
2023/07/11 01:23:33;;;;;;;;;;;;;;;;;;5066439;28;19932;-69
2023/07/11 01:26:00;;;;;;;;;;;;;;;;;;5066032;28;19973;-69
2023/07/11 01:28:27;;;;;;;;;;;;;;;;;;5068943;28;19932;-68
2023/07/11 01:30:54;;;;;;;;;;;;;;;;;;5070753;28;19931;-69
2023/07/11 01:33:24;;;;;;;;;;;;;;;;;;5070442;28;20366;-68
2023/07/11 01:35:51;;;;;;;;;;;;;;;;;;5071854;28;19931;-68
2023/07/11 01:38:18;;;;;;;;;;;;;;;;;;5070122;28;19974;-68
2023/07/11 01:40:45;;;;;;;;;;;;;;;;;;5078024;28;20031;-69
2023/07/11 01:43:12;;;;;;;;;;;;;;;;;;5060988;28;19999;-69
2023/07/11 01:45:40;;;;;;;;;;;;;;;;;;5071331;28;20011;-68
2023/07/11 01:48:07;;;;;;;;;;;;;;;;;;5070430;28;20290;-69
2023/07/11 01:50:34;;;;;;;;;;;;;;;;;;5064349;28;20473;-69
2023/07/11 01:53:01;;;;;;;;;;;;;;;;;;5069749;28;19982;-69
2023/07/11 01:55:28;;;;;;;;;;;;;;;;;;5071229;28;19986;-69
2023/07/11 01:57:55;;;;;;;;;;;;;;;;;;5080433;28;20011;-68
2023/07/11 02:00:22;;;;;;;;;;;;;;;;;;5072053;28;20342;-68
2023/07/11 02:02:49;;;;;;;;;;;;;;;;;;5072678;28;20004;-68
2023/07/11 02:05:16;;;;;;;;;;;;;;;;;;5068961;28;20008;-68
2023/07/11 02:07:43;;;;;;;;;;;;;;;;;;5068426;28;19924;-68
2023/07/11 02:10:10;;;;;;;;;;;;;;;;;;5069775;28;20007;-68
2023/07/11 02:12:37;;;;;;;;;;;;;;;;;;5071381;28;19924;-68
2023/07/11 02:15:04;;;;;;;;;;;;;;;;;;5070344;28;20019;-68
2023/07/11 02:17:32;;;;;;;;;;;;;;;;;;5069188;28;19924;-68
2023/07/11 02:19:59;;;;;;;;;;;;;;;;;;5071273;28;19933;-68
2023/07/11 02:22:26;;;;;;;;;;;;;;;;;;5069243;28;20026;-70
2023/07/11 02:24:53;;;;;;;;;;;;;;;;;;5068883;28;20054;-69
2023/07/11 02:27:20;;;;;;;;;;;;;;;;;;5066559;28;19955;-69
2023/07/11 02:29:47;;;;;;;;;;;;;;;;;;5069770;28;19975;-68
2023/07/11 02:32:14;;;;;;;;;;;;;;;;;;5062512;28;20019;-69
2023/07/11 02:34:40;;;;;;;;;;;;;;;;;;5064192;28;20007;-69
2023/07/11 02:37:07;;;;;;;;;;;;;;;;;;5068562;28;20454;-68
2023/07/11 02:39:34;;;;;;;;;;;;;;;;;;5068963;28;20456;-69
2023/07/11 02:42:01;;;;;;;;;;;;;;;;;;5068115;28;20364;-68
2023/07/11 02:44:28;;;;;;;;;;;;;;;;;;5069959;28;19928;-69
2023/07/11 02:46:55;;;;;;;;;;;;;;;;;;5064709;28;19952;-69
2023/07/11 02:49:22;;;;;;;;;;;;;;;;;;5070694;28;20019;-69
2023/07/11 02:51:50;;;;;;;;;;;;;;;;;;5069242;28;20458;-69
2023/07/11 02:54:16;;;;;;;;;;;;;;;;;;5069559;28;19925;-69
2023/07/11 02:56:43;;;;;;;;;;;;;;;;;;5069171;28;20367;-69
2023/07/11 02:59:10;;;;;;;;;;;;;;;;;;5069260;28;20013;-69
2023/07/11 03:01:37;;;;;;;;;;;;;;;;;;5067219;28;20376;-68
2023/07/11 03:04:05;;;;;;;;;;;;;;;;;;5069617;28;19970;-69
2023/07/11 03:06:32;;;;;;;;;;;;;;;;;;5076289;28;19925;-68
2023/07/11 03:08:59;;;;;;;;;;;;;;;;;;5074235;28;20448;-68
2023/07/11 03:11:26;;;;;;;;;;;;;;;;;;5071160;28;20366;-69
2023/07/11 03:13:53;;;;;;;;;;;;;;;;;;5071263;28;19967;-68
2023/07/11 03:16:20;;;;;;;;;;;;;;;;;;5072680;28;19959;-68
2023/07/11 03:18:47;;;;;;;;;;;;;;;;;;5071256;28;20405;-68
2023/07/11 03:21:14;;;;;;;;;;;;;;;;;;5072580;28;20273;-68
2023/07/11 03:23:41;;;;;;;;;;;;;;;;;;5077063;28;19963;-69
2023/07/11 03:26:07;;;;;;;;;;;;;;;;;;5075138;28;19967;-69
2023/07/11 03:28:34;;;;;;;;;;;;;;;;;;5074836;28;19955;-69
2023/07/11 03:31:01;;;;;;;;;;;;;;;;;;5073856;28;19932;-68
2023/07/11 03:33:28;;;;;;;;;;;;;;;;;;5072468;28;19928;-69
2023/07/11 03:35:55;;;;;;;;;;;;;;;;;;5072725;28;19932;-68
2023/07/11 03:38:22;;;;;;;;;;;;;;;;;;5070988;28;19983;-68
2023/07/11 03:40:48;;;;;;;;;;;;;;;;;;5077285;28;19931;-70
2023/07/11 03:43:15;;;;;;;;;;;;;;;;;;5073623;28;19924;-68
2023/07/11 03:45:43;;;;;;;;;;;;;;;;;;5070769;28;19967;-69
2023/07/11 03:48:10;;;;;;;;;;;;;;;;;;5070520;28;20043;-68
2023/07/11 03:50:37;;;;;;;;;;;;;;;;;;5073147;28;19978;-68
2023/07/11 03:53:04;;;;;;;;;;;;;;;;;;5072929;28;19924;-69
2023/07/11 03:55:31;;;;;;;;;;;;;;;;;;5073937;28;19931;-68
2023/07/11 03:57:58;;;;;;;;;;;;;;;;;;5073395;28;20004;-68
2023/07/11 04:00:25;;;;;;;;;;;;;;;;;;5073080;28;19924;-69
2023/07/11 04:02:52;;;;;;;;;;;;;;;;;;5073913;28;20406;-69
2023/07/11 04:05:19;;;;;;;;;;;;;;;;;;5072041;28;20010;-70
2023/07/11 04:07:46;;;;;;;;;;;;;;;;;;5071032;28;19931;-68
2023/07/11 04:10:13;;;;;;;;;;;;;;;;;;5071707;28;20023;-69
2023/07/11 04:12:40;;;;;;;;;;;;;;;;;;5072388;28;19970;-68
2023/07/11 04:15:07;;;;;;;;;;;;;;;;;;5072437;28;19979;-69
2023/07/11 04:17:34;;;;;;;;;;;;;;;;;;5067601;28;20011;-68
2023/07/11 04:20:01;;;;;;;;;;;;;;;;;;5071460;28;19925;-68
2023/07/11 04:22:28;;;;;;;;;;;;;;;;;;5069696;28;20460;-68
2023/07/11 04:24:55;;;;;;;;;;;;;;;;;;5072001;28;20356;-68
2023/07/11 04:27:22;;;;;;;;;;;;;;;;;;5072968;28;19932;-68
2023/07/11 04:29:49;;;;;;;;;;;;;;;;;;5073879;28;19978;-68
2023/07/11 04:32:16;;;;;;;;;;;;;;;;;;5067772;28;19924;-69
2023/07/11 04:34:43;;;;;;;;;;;;;;;;;;5070464;28;20359;-69
2023/07/11 04:37:10;;;;;;;;;;;;;;;;;;5071462;28;19935;-69
2023/07/11 04:39:37;;;;;;;;;;;;;;;;;;5070483;28;19925;-69
2023/07/11 04:42:04;;;;;;;;;;;;;;;;;;5068514;28;19924;-68
2023/07/11 04:44:31;;;;;;;;;;;;;;;;;;5068977;28;20022;-67
2023/07/11 04:46:58;;;;;;;;;;;;;;;;;;5075140;28;19938;-67
2023/07/11 04:49:25;;;;;;;;;;;;;;;;;;5063427;28;19970;-67
2023/07/11 04:51:52;;;;;;;;;;;;;;;;;;5070861;28;20458;-67
2023/07/11 04:54:19;;;;;;;;;;;;;;;;;;5066405;28;20045;-68
2023/07/11 04:56:46;;;;;;;;;;;;;;;;;;5072867;28;19966;-68
2023/07/11 04:59:13;;;;;;;;;;;;;;;;;;5070459;28;20015;-68
2023/07/11 05:01:40;;;;;;;;;;;;;;;;;;5069320;28;20019;-67
2023/07/11 05:04:08;;;;;;;;;;;;;;;;;;5070568;28;19970;-67
2023/07/11 05:06:35;;;;;;;;;;;;;;;;;;5075966;28;19925;-67
2023/07/11 05:09:02;;;;;;;;;;;;;;;;;;5069060;28;19924;-67
2023/07/11 05:11:29;;;;;;;;;;;;;;;;;;5070788;28;19932;-68
2023/07/11 05:13:56;;;;;;;;;;;;;;;;;;5067801;28;20395;-68
2023/07/11 05:16:24;;;;;;;;;;;;;;;;;;5071158;28;20376;-68
2023/07/11 05:18:51;;;;;;;;;;;;;;;;;;5067845;28;19931;-68
2023/07/11 05:21:18;;;;;;;;;;;;;;;;;;5067594;28;19960;-68
2023/07/11 05:23:45;;;;;;;;;;;;;;;;;;5070856;28;19924;-68
2023/07/11 05:26:12;;;;;;;;;;;;;;;;;;5071553;28;19924;-68
2023/07/11 05:28:39;;;;;;;;;;;;;;;;;;5067851;28;19936;-69
2023/07/11 05:31:06;;;;;;;;;;;;;;;;;;5058546;28;19993;-69
2023/07/11 05:33:33;;;;;;;;;;;;;;;;;;5070717;28;20019;-70
2023/07/11 05:36:15;;;;;;;;;;;;;;;;;;5070480;28;20019;-69
2023/07/11 05:38:42;;;;;;;;;;;;;;;;;;5076352;28;19947;-69
2023/07/11 05:41:09;;;;;;;;;;;;;;;;;;5070878;28;19931;-70
2023/07/11 05:43:37;;;;;;;;;;;;;;;;;;5068623;28;19924;-68
2023/07/11 05:46:04;;;;;;;;;;;;;;;;;;5060059;28;19929;-70
2023/07/11 05:48:31;;;;;;;;;;;;;;;;;;5070139;28;19976;-69
2023/07/11 05:50:57;;;;;;;;;;;;;;;;;;5070408;28;19955;-70
2023/07/11 05:53:24;;;;;;;;;;;;;;;;;;5070519;28;20023;-70
2023/07/11 05:55:54;;;;;;;;;;;;;;;;;;5071791;28;19931;-70
2023/07/11 05:58:21;;;;;;;;;;;;;;;;;;5071365;28;20447;-69
2023/07/11 06:00:48;;;;;;;;;;;;;;;;;;5070629;28;20668;-69
2023/07/11 06:03:15;;;;;;;;;;;;;;;;;;5070902;28;20304;-68
2023/07/11 06:05:43;;;;;;;;;;;;;;;;;;5067228;28;20028;-69
2023/07/11 06:08:12;;;;;;;;;;;;;;;;;;5069955;28;19935;-69
2023/07/11 06:10:39;;;;;;;;;;;;;;;;;;5067857;28;19932;-69
2023/07/11 06:13:06;;;;;;;;;;;;;;;;;;5072663;28;19924;-70
2023/07/11 06:15:33;;;;;;;;;;;;;;;;;;5068826;28;20059;-70
2023/07/11 06:18:00;;;;;;;;;;;;;;;;;;5070146;28;19924;-69
2023/07/11 06:20:27;;;;;;;;;;;;;;;;;;5068127;28;19935;-69
2023/07/11 06:22:54;;;;;;;;;;;;;;;;;;5068344;28;19933;-69
2023/07/11 06:25:21;;;;;;;;;;;;;;;;;;5068965;28;20031;-70
2023/07/11 06:27:48;;;;;;;;;;;;;;;;;;5069656;28;20284;-69
2023/07/11 06:30:15;;;;;;;;;;;;;;;;;;5070114;28;19924;-69
2023/07/11 06:32:42;;;;;;;;;;;;;;;;;;5069428;28;19924;-68
2023/07/11 06:35:09;;;;;;;;;;;;;;;;;;5067511;28;19933;-69
2023/07/11 06:37:37;;;;;;;;;;;;;;;;;;5067467;28;19998;-69
2023/07/11 06:40:08;;;;;;;;;;;;;;;;;;5066912;28;20010;-69
2023/07/11 06:42:35;;;;;;;;;;;;;;;;;;5072053;28;20030;-69
2023/07/11 06:45:02;;;;;;;;;;;;;;;;;;5070646;28;19931;-69
2023/07/11 06:47:29;;;;;;;;;;;;;;;;;;5075355;28;20011;-69
2023/07/11 06:49:56;;;;;;;;;;;;;;;;;;5062441;28;19931;-69
2023/07/11 06:52:23;;;;;;;;;;;;;;;;;;5069993;28;20023;-69
2023/07/11 06:54:52;;;;;;;;;;;;;;;;;;5069482;28;21421;-70
2023/07/11 06:57:19;;;;;;;;;;;;;;;;;;5071280;28;20359;-70
2023/07/11 06:59:47;;;;;;;;;;;;;;;;;;5057716;28;19979;-70
2023/07/11 07:02:14;;;;;;;;;;;;;;;;;;5065076;28;19937;-70
2023/07/11 07:04:41;;;;;;;;;;;;;;;;;;5065090;28;19952;-70
2023/07/11 07:07:08;;;;;;;;;;;;;;;;;;5071375;28;20036;-70
2023/07/11 07:09:35;;;;;;;;;;;;;;;;;;5066187;28;20625;-69
2023/07/11 07:12:03;;;;;;;;;;;;;;;;;;5070552;28;20347;-70
2023/07/11 07:14:30;;;;;;;;;;;;;;;;;;5070073;28;19978;-70
2023/07/11 07:16:57;;;;;;;;;;;;;;;;;;5074976;28;20383;-70
2023/07/11 07:19:24;;;;;;;;;;;;;;;;;;5074123;28;20031;-69
2023/07/11 07:21:51;;;;;;;;;;;;;;;;;;5073174;28;20015;-70
2023/07/11 07:24:18;;;;;;;;;;;;;;;;;;5068291;28;19924;-70
2023/07/11 07:26:45;;;;;;;;;;;;;;;;;;5066970;28;20019;-70
2023/07/11 07:29:12;;;;;;;;;;;;;;;;;;5064182;28;20736;-70
2023/07/11 07:31:39;;;;;;;;;;;;;;;;;;5068764;28;20016;-69
2023/07/11 07:34:06;;;;;;;;;;;;;;;;;;5072290;28;19928;-70
2023/07/11 07:36:32;;;;;;;;;;;;;;;;;;5067866;28;19930;-70
2023/07/11 07:38:59;;;;;;;;;;;;;;;;;;5067920;28;20012;-69
2023/07/11 07:41:26;;;;;;;;;;;;;;;;;;5067533;28;19997;-70
2023/07/11 07:43:53;;;;;;;;;;;;;;;;;;5069193;28;19925;-70
2023/07/11 07:46:20;;;;;;;;;;;;;;;;;;5063921;28;20471;-70
2023/07/11 07:48:47;;;;;;;;;;;;;;;;;;5071070;28;20335;-70
2023/07/11 07:51:14;;;;;;;;;;;;;;;;;;5067684;28;20569;-70
2023/07/11 07:53:41;;;;;;;;;;;;;;;;;;5070002;28;19967;-70
2023/07/11 07:56:08;;;;;;;;;;;;;;;;;;5060890;28;19931;-70
2023/07/11 07:58:35;;;;;;;;;;;;;;;;;;5068935;28;20058;-70
2023/07/11 08:01:03;;;;;;;;;;;;;;;;;;5065403;28;20019;-70
2023/07/11 08:03:30;;;;;;;;;;;;;;;;;;5065254;28;19994;-68
2023/07/11 08:05:57;;;;;;;;;;;;;;;;;;5063790;28;19933;-68
2023/07/11 08:08:24;;;;;;;;;;;;;;;;;;5066083;28;20019;-69
2023/07/11 08:10:51;;;;;;;;;;;;;;;;;;5063233;28;19934;-69
2023/07/11 08:13:18;;;;;;;;;;;;;;;;;;5061997;28;20024;-69
2023/07/11 08:15:45;;;;;;;;;;;;;;;;;;5062453;28;19975;-71
2023/07/11 08:18:12;;;;;;;;;;;;;;;;;;5065705;28;19932;-69
2023/07/11 08:20:39;;;;;;;;;;;;;;;;;;5067646;28;21509;-69
2023/07/11 08:23:06;;;;;;;;;;;;;;;;;;5058889;28;19925;-68
2023/07/11 08:25:33;;;;;;;;;;;;;;;;;;5070709;28;19999;-69
2023/07/11 08:28:00;;;;;;;;;;;;;;;;;;5070637;28;19928;-69
2023/07/11 08:30:27;;;;;;;;;;;;;;;;;;5065704;28;19971;-70
2023/07/11 08:32:54;;;;;;;;;;;;;;;;;;5065741;28;19974;-69
2023/07/11 08:35:21;;;;;;;;;;;;;;;;;;5065478;28;19925;-72
2023/07/11 08:37:49;;;;;;;;;;;;;;;;;;5064580;28;19971;-69
2023/07/11 08:40:16;;;;;;;;;;;;;;;;;;5063050;28;19924;-69
2023/07/11 08:42:44;;;;;;;;;;;;;;;;;;5069374;28;19928;-70
2023/07/11 08:45:11;;;;;;;;;;;;;;;;;;5073954;28;20006;-70
2023/07/11 08:47:38;;;;;;;;;;;;;;;;;;5066323;28;20378;-69
2023/07/11 08:50:05;;;;;;;;;;;;;;;;;;5066194;28;19999;-68
2023/07/11 08:52:32;;;;;;;;;;;;;;;;;;5062690;28;19933;-69
2023/07/11 08:54:59;;;;;;;;;;;;;;;;;;5065291;28;20455;-69
2023/07/11 08:57:29;;;;;;;;;;;;;;;;;;5066149;28;19932;-69
2023/07/11 08:59:56;;;;;;;;;;;;;;;;;;5066046;28;19932;-69
2023/07/11 09:02:23;;;;;;;;;;;;;;;;;;5067937;28;19974;-70
2023/07/11 09:04:50;;;;;;;;;;;;;;;;;;5068544;28;20014;-68
2023/07/11 09:07:17;;;;;;;;;;;;;;;;;;5064378;28;20023;-70
2023/07/11 09:09:44;;;;;;;;;;;;;;;;;;5063885;28;20018;-69
2023/07/11 09:12:11;;;;;;;;;;;;;;;;;;5068498;28;19928;-70
2023/07/11 09:14:38;;;;;;;;;;;;;;;;;;5070172;28;20019;-69
2023/07/11 09:17:05;;;;;;;;;;;;;;;;;;5064335;28;19968;-70
2023/07/11 09:19:32;;;;;;;;;;;;;;;;;;5064444;28;19956;-69
2023/07/11 09:21:59;;;;;;;;;;;;;;;;;;5066918;28;19932;-68
2023/07/11 09:24:31;;;;;;;;;;;;;;;;;;5068052;28;19931;-69
2023/07/11 09:26:58;;;;;;;;;;;;;;;;;;5069198;28;20603;-71
2023/07/11 09:29:25;;;;;;;;;;;;;;;;;;5058530;28;19987;-71
2023/07/11 09:31:51;;;;;;;;;;;;;;;;;;5060703;28;19925;-71
2023/07/11 09:34:18;;;;;;;;;;;;;;;;;;5061483;28;20011;-71
2023/07/11 09:36:45;;;;;;;;;;;;;;;;;;5060226;28;20372;-71
2023/07/11 09:39:12;;;;;;;;;;;;;;;;;;5064119;28;19967;-72
2023/07/11 09:41:39;;;;;;;;;;;;;;;;;;5065597;28;20011;-72
2023/07/11 09:44:06;;;;;;;;;;;;;;;;;;5062677;28;19924;-72
2023/07/11 09:46:33;;;;;;;;;;;;;;;;;;5060891;28;20007;-71
2023/07/11 09:49:00;;;;;;;;;;;;;;;;;;5063865;28;19968;-71
2023/07/11 09:51:28;;;;;;;;;;;;;;;;;;5067132;28;20772;-70
2023/07/11 09:53:55;;;;;;;;;;;;;;;;;;5065250;28;19931;-72
2023/07/11 09:56:22;;;;;;;;;;;;;;;;;;5068412;28;19925;-72
2023/07/11 09:58:49;;;;;;;;;;;;;;;;;;5064922;28;19932;-72
2023/07/11 10:01:17;;;;;;;;;;;;;;;;;;5063159;28;20012;-71
2023/07/11 10:03:45;;;;;;;;;;;;;;;;;;5065066;28;19929;-70
2023/07/11 10:06:12;;;;;;;;;;;;;;;;;;5057745;28;20395;-71
2023/07/11 10:08:39;;;;;;;;;;;;;;;;;;5063339;28;19960;-72
2023/07/11 10:11:06;;;;;;;;;;;;;;;;;;5061332;28;19934;-72
2023/07/11 10:13:33;;;;;;;;;;;;;;;;;;5062375;28;19924;-71
2023/07/11 10:16:00;;;;;;;;;;;;;;;;;;5058625;28;20340;-70
2023/07/11 10:18:27;;;;;;;;;;;;;;;;;;5068778;28;19924;-72
2023/07/11 10:20:54;;;;;;;;;;;;;;;;;;5062156;28;20007;-73
2023/07/11 10:23:21;;;;;;;;;;;;;;;;;;5066482;28;19971;-71
2023/07/11 10:25:48;;;;;;;;;;;;;;;;;;5065362;28;19928;-73
2023/07/11 10:28:15;;;;;;;;;;;;;;;;;;5067365;28;19924;-72
2023/07/11 10:30:42;;;;;;;;;;;;;;;;;;5059905;28;19987;-70
2023/07/11 10:33:09;;;;;;;;;;;;;;;;;;5061858;28;20014;-70
2023/07/11 10:35:36;;;;;;;;;;;;;;;;;;5061280;28;20006;-71
2023/07/11 10:38:04;;;;;;;;;;;;;;;;;;5064198;28;19928;-72
2023/07/11 10:40:31;;;;;;;;;;;;;;;;;;5062195;28;19940;-72
2023/07/11 10:42:58;;;;;;;;;;;;;;;;;;5065043;28;19924;-72
2023/07/11 10:45:26;;;;;;;;;;;;;;;;;;5068727;28;19999;-71
2023/07/11 10:47:53;;;;;;;;;;;;;;;;;;5067573;28;19956;-72
2023/07/11 10:50:22;;;;;;;;;;;;;;;;;;5069563;28;19925;-71
2023/07/11 10:52:49;;;;;;;;;;;;;;;;;;5062062;28;19986;-72
2023/07/11 10:55:16;;;;;;;;;;;;;;;;;;5065397;28;20303;-71
2023/07/11 10:57:44;;;;;;;;;;;;;;;;;;5066892;28;19933;-71
2023/07/11 11:00:11;;;;;;;;;;;;;;;;;;5062732;28;19929;-71
2023/07/11 11:02:38;;;;;;;;;;;;;;;;;;5064546;28;20415;-73
2023/07/11 11:05:05;;;;;;;;;;;;;;;;;;5061478;28;19979;-71
2023/07/11 11:07:32;;;;;;;;;;;;;;;;;;5058753;28;20049;-71
2023/07/11 11:09:59;;;;;;;;;;;;;;;;;;5070235;28;20020;-72
2023/07/11 11:12:26;;;;;;;;;;;;;;;;;;5068347;28;20014;-72
2023/07/11 11:14:53;;;;;;;;;;;;;;;;;;5068575;28;19976;-72
2023/07/11 11:17:20;;;;;;;;;;;;;;;;;;5068181;28;19924;-70
2023/07/11 11:19:47;;;;;;;;;;;;;;;;;;5088911;28;19931;-71
2023/07/11 11:22:14;;;;;;;;;;;;;;;;;;5063646;28;20012;-71
2023/07/11 11:24:41;;;;;;;;;;;;;;;;;;5064352;28;19947;-75
2023/07/11 11:27:08;;;;;;;;;;;;;;;;;;5074860;28;19948;-74
2023/07/11 11:29:35;;;;;;;;;;;;;;;;;;5070803;28;19977;-78
2023/07/11 11:32:02;;;;;;;;;;;;;;;;;;5073610;28;20051;-75
2023/07/11 11:34:29;;;;;;;;;;;;;;;;;;5073774;28;19928;-75
2023/07/11 11:36:56;;;;;;;;;;;;;;;;;;5074415;28;19960;-75
2023/07/11 11:39:23;;;;;;;;;;;;;;;;;;5073909;28;20027;-74
2023/07/11 11:41:50;;;;;;;;;;;;;;;;;;5071679;28;19929;-76
2023/07/11 11:44:17;;;;;;;;;;;;;;;;;;5074213;28;19976;-76
2023/07/11 11:46:44;;;;;;;;;;;;;;;;;;5073443;28;20021;-77
2023/07/11 11:49:11;;;;;;;;;;;;;;;;;;5074449;28;20011;-75
2023/07/11 11:51:38;;;;;;;;;;;;;;;;;;5074861;28;19959;-75
2023/07/11 11:54:05;;;;;;;;;;;;;;;;;;5074933;28;20759;-75
2023/07/11 11:56:32;;;;;;;;;;;;;;;;;;5070031;28;20351;-75
2023/07/11 11:58:59;;;;;;;;;;;;;;;;;;5069524;28;20019;-76
2023/07/11 12:01:26;;;;;;;;;;;;;;;;;;5073417;28;20018;-75
2023/07/11 12:03:53;;;;;;;;;;;;;;;;;;5072517;28;20433;-75
2023/07/11 12:06:20;;;;;;;;;;;;;;;;;;5065867;28;20371;-76
2023/07/11 12:08:47;;;;;;;;;;;;;;;;;;5072501;28;19956;-74
2023/07/11 12:11:12;;;;;;;;;;;;;;;;;;5072674;28;19932;-78
2023/07/11 12:13:39;;;;;;;;;;;;;;;;;;5071507;28;19925;-76
2023/07/11 12:16:06;;;;;;;;;;;;;;;;;;5068954;28;20011;-74
2023/07/11 12:18:32;;;;;;;;;;;;;;;;;;5070581;28;19924;-74
2023/07/11 12:20:59;;;;;;;;;;;;;;;;;;5070884;28;20095;-74
2023/07/11 12:23:26;;;;;;;;;;;;;;;;;;5072106;28;19972;-77
2023/07/11 12:25:53;;;;;;;;;;;;;;;;;;5071887;28;20394;-75
2023/07/11 12:28:20;;;;;;;;;;;;;;;;;;5073343;28;20023;-74
2023/07/11 12:30:47;;;;;;;;;;;;;;;;;;5073513;28;19925;-74
2023/07/11 12:33:14;;;;;;;;;;;;;;;;;;5072692;28;19925;-74
2023/07/11 12:35:41;;;;;;;;;;;;;;;;;;5069393;28;20363;-74
2023/07/11 12:38:08;;;;;;;;;;;;;;;;;;5070596;28;20007;-74
2023/07/11 12:40:36;;;;;;;;;;;;;;;;;;5071551;28;21032;-74
2023/07/11 12:43:03;;;;;;;;;;;;;;;;;;5078132;28;19938;-74
2023/07/11 12:45:30;;;;;;;;;;;;;;;;;;5093884;28;19985;-75
2023/07/11 12:47:57;;;;;;;;;;;;;;;;;;5068069;28;19924;-74
2023/07/11 12:50:24;;;;;;;;;;;;;;;;;;5064743;28;20015;-74
2023/07/11 12:52:51;;;;;;;;;;;;;;;;;;5069330;28;19924;-74
2023/07/11 12:55:18;;;;;;;;;;;;;;;;;;5068039;28;19968;-74
2023/07/11 12:57:45;;;;;;;;;;;;;;;;;;5065162;28;20462;-74
2023/07/11 13:00:13;;;;;;;;;;;;;;;;;;5065591;28;20023;-75
2023/07/11 13:02:40;;;;;;;;;;;;;;;;;;5069666;28;19924;-73
2023/07/11 13:05:07;;;;;;;;;;;;;;;;;;5071608;28;19924;-73
2023/07/11 13:07:35;;;;;;;;;;;;;;;;;;5068363;28;19924;-74
2023/07/11 13:10:03;;;;;;;;;;;;;;;;;;5064712;28;20037;-74
2023/07/11 13:12:30;;;;;;;;;;;;;;;;;;5066386;28;21021;-74
2023/07/11 13:14:57;;;;;;;;;;;;;;;;;;5070381;28;19975;-74
2023/07/11 13:17:24;;;;;;;;;;;;;;;;;;5071200;28;20009;-74
2023/07/11 13:19:51;;;;;;;;;;;;;;;;;;5072177;28;19964;-75
2023/07/11 13:22:18;;;;;;;;;;;;;;;;;;5073052;28;20108;-74
2023/07/11 13:24:45;;;;;;;;;;;;;;;;;;5071872;28;20027;-75
2023/07/11 13:27:12;;;;;;;;;;;;;;;;;;5069213;28;20407;-74
2023/07/11 13:29:39;;;;;;;;;;;;;;;;;;5070975;28;20561;-71
2023/07/11 13:32:06;;;;;;;;;;;;;;;;;;5071325;28;20001;-72
2023/07/11 13:34:33;;;;;;;;;;;;;;;;;;5073274;28;19939;-72
2023/07/11 13:37:00;;;;;;;;;;;;;;;;;;5070940;28;19953;-71
2023/07/11 13:39:27;;;;;;;;;;;;;;;;;;5071188;28;20023;-71
2023/07/11 13:41:55;;;;;;;;;;;;;;;;;;5069667;28;20399;-71
2023/07/11 13:44:22;;;;;;;;;;;;;;;;;;5072144;28;19924;-72
2023/07/11 13:46:49;;;;;;;;;;;;;;;;;;5072094;28;19930;-72
2023/07/11 13:49:16;;;;;;;;;;;;;;;;;;5070303;28;19931;-72
2023/07/11 13:51:42;;;;;;;;;;;;;;;;;;5071413;28;20023;-72
2023/07/11 13:54:09;;;;;;;;;;;;;;;;;;5068187;28;19964;-71
2023/07/11 13:56:36;;;;;;;;;;;;;;;;;;5070347;28;20481;-73
2023/07/11 13:59:03;;;;;;;;;;;;;;;;;;5070744;28;20490;-72
2023/07/11 14:01:30;;;;;;;;;;;;;;;;;;5069910;28;20379;-71
2023/07/11 14:03:57;;;;;;;;;;;;;;;;;;5070174;28;19944;-71
2023/07/11 14:06:24;;;;;;;;;;;;;;;;;;5071782;28;20054;-71
2023/07/11 14:08:51;;;;;;;;;;;;;;;;;;5063978;28;19962;-71
2023/07/11 14:11:18;;;;;;;;;;;;;;;;;;5069774;28;19928;-71
2023/07/11 14:13:45;;;;;;;;;;;;;;;;;;5072309;28;20026;-71
2023/07/11 14:16:12;;;;;;;;;;;;;;;;;;5069925;28;19993;-72
2023/07/11 14:18:39;;;;;;;;;;;;;;;;;;5068006;28;20022;-72
2023/07/11 14:21:06;;;;;;;;;;;;;;;;;;5069820;28;19925;-72
2023/07/11 14:23:33;;;;;;;;;;;;;;;;;;5069678;28;20490;-72
2023/07/11 14:26:01;;;;;;;;;;;;;;;;;;5077190;28;19933;-71
2023/07/11 14:28:28;;;;;;;;;;;;;;;;;;5071726;28;19931;-72
2023/07/11 14:30:56;;;;;;;;;;;;;;;;;;5069172;28;20309;-71
2023/07/11 14:33:23;;;;;;;;;;;;;;;;;;5072325;28;19925;-70
2023/07/11 14:35:50;;;;;;;;;;;;;;;;;;5069411;28;19924;-70
2023/07/11 14:38:17;;;;;;;;;;;;;;;;;;5073534;28;19974;-71
2023/07/11 14:40:44;;;;;;;;;;;;;;;;;;5071869;28;19925;-71
2023/07/11 14:43:11;;;;;;;;;;;;;;;;;;5068060;28;20392;-70
2023/07/11 14:45:38;;;;;;;;;;;;;;;;;;5070565;28;19928;-71
2023/07/11 14:48:05;;;;;;;;;;;;;;;;;;5065274;28;20007;-70
2023/07/11 14:50:32;;;;;;;;;;;;;;;;;;5069459;28;20019;-72
2023/07/11 14:52:59;;;;;;;;;;;;;;;;;;5066575;28;20008;-71
2023/07/11 14:55:26;;;;;;;;;;;;;;;;;;5071552;28;19931;-72
2023/07/11 14:57:54;;;;;;;;;;;;;;;;;;5066999;28;20019;-72
2023/07/11 15:00:21;;;;;;;;;;;;;;;;;;5067695;28;19925;-71
2023/07/11 15:02:48;;;;;;;;;;;;;;;;;;5073395;28;20345;-71
2023/07/11 15:05:15;;;;;;;;;;;;;;;;;;5069110;28;19924;-70
2023/07/11 15:07:42;;;;;;;;;;;;;;;;;;5074328;28;20017;-71
2023/07/11 15:10:09;;;;;;;;;;;;;;;;;;5072842;28;19924;-71
2023/07/11 15:12:36;;;;;;;;;;;;;;;;;;5072497;28;19925;-71
2023/07/11 15:15:03;;;;;;;;;;;;;;;;;;5074358;28;19968;-72
2023/07/11 15:17:30;;;;;;;;;;;;;;;;;;5074164;28;19966;-72
2023/07/11 15:19:57;;;;;;;;;;;;;;;;;;5059264;28;20009;-73
2023/07/11 15:22:24;;;;;;;;;;;;;;;;;;5066289;28;19966;-71
2023/07/11 15:24:52;;;;;;;;;;;;;;;;;;5059639;28;19979;-70
2023/07/11 15:27:19;;;;;;;;;;;;;;;;;;5067775;28;20358;-72
2023/07/11 15:29:48;;;;;;;;;;;;;;;;;;5074352;28;20567;-70
2023/07/11 15:32:15;;;;;;;;;;;;;;;;;;5067820;28;20449;-71
2023/07/11 15:34:42;;;;;;;;;;;;;;;;;;5072090;28;20018;-70
2023/07/11 15:37:09;;;;;;;;;;;;;;;;;;5065992;28;20403;-70
2023/07/11 15:39:36;;;;;;;;;;;;;;;;;;5069371;28;19925;-71
2023/07/11 15:42:04;;;;;;;;;;;;;;;;;;5069464;28;19974;-72
2023/07/11 15:44:32;;;;;;;;;;;;;;;;;;5061537;28;20003;-71
2023/07/11 15:46:59;;;;;;;;;;;;;;;;;;5062318;28;19960;-72
2023/07/11 15:49:26;;;;;;;;;;;;;;;;;;5070471;28;20367;-72
2023/07/11 15:51:53;;;;;;;;;;;;;;;;;;5067049;28;20011;-73
2023/07/11 15:54:20;;;;;;;;;;;;;;;;;;5065257;28;19924;-73
2023/07/11 15:56:47;;;;;;;;;;;;;;;;;;5069089;28;20023;-73
2023/07/11 15:59:14;;;;;;;;;;;;;;;;;;5073488;28;20018;-73
2023/07/11 16:01:41;;;;;;;;;;;;;;;;;;5070902;28;20446;-73
2023/07/11 16:04:09;;;;;;;;;;;;;;;;;;5072582;28;19928;-73
2023/07/11 16:06:36;;;;;;;;;;;;;;;;;;5073929;28;20368;-72
2023/07/11 16:09:02;;;;;;;;;;;;;;;;;;5064204;28;20395;-73
2023/07/11 16:11:29;;;;;;;;;;;;;;;;;;5070987;28;20011;-73
2023/07/11 16:13:56;;;;;;;;;;;;;;;;;;5069232;28;20011;-73
2023/07/11 16:16:23;;;;;;;;;;;;;;;;;;5068368;28;19930;-72
2023/07/11 16:18:50;;;;;;;;;;;;;;;;;;5061643;28;19978;-73
2023/07/11 16:21:17;;;;;;;;;;;;;;;;;;5066498;28;20490;-73
2023/07/11 16:23:44;;;;;;;;;;;;;;;;;;5068718;28;19928;-72
2023/07/11 16:26:11;;;;;;;;;;;;;;;;;;5066778;28;19989;-72
2023/07/11 16:28:38;;;;;;;;;;;;;;;;;;5060079;28;20011;-72
2023/07/11 16:31:05;;;;;;;;;;;;;;;;;;5071212;28;19968;-72
2023/07/11 16:33:32;;;;;;;;;;;;;;;;;;5065052;28;19924;-72
2023/07/11 16:35:59;;;;;;;;;;;;;;;;;;5073535;28;19924;-72
2023/07/11 16:38:26;;;;;;;;;;;;;;;;;;5068027;28;19990;-71
2023/07/11 16:40:56;;;;;;;;;;;;;;;;;;5069177;28;19934;-72
2023/07/11 16:43:23;;;;;;;;;;;;;;;;;;5067709;28;19936;-74